sensor_id;sensor_type;location;lat;lon;timestamp;pressure;altitude;pressure_sealevel;temperature;humidity
68807;BME280;55800;54.272;18.558;2022-09-01T00:00:06;101631.53;;;11.75;59.67
68807;BME280;55800;54.272;18.558;2022-09-01T00:02:56;101625.31;;;11.74;59.60
68807;BME280;55800;54.272;18.558;2022-09-01T00:05:25;101631.59;;;11.73;59.66
68807;BME280;55800;54.272;18.558;2022-09-01T00:07:54;101624.53;;;11.71;59.65
68807;BME280;55800;54.272;18.558;2022-09-01T00:10:24;101622.78;;;11.70;59.66
68807;BME280;55800;54.272;18.558;2022-09-01T00:12:53;101621.00;;;11.69;59.78
68807;BME280;55800;54.272;18.558;2022-09-01T00:15:27;101620.19;;;11.67;59.74
68807;BME280;55800;54.272;18.558;2022-09-01T00:17:57;101623.78;;;11.66;59.97
68807;BME280;55800;54.272;18.558;2022-09-01T00:20:26;101618.41;;;11.66;59.88
68807;BME280;55800;54.272;18.558;2022-09-01T00:22:55;101630.03;;;11.65;59.95
68807;BME280;55800;54.272;18.558;2022-09-01T00:25:25;101626.47;;;11.64;60.10
68807;BME280;55800;54.272;18.558;2022-09-01T00:27:54;101618.44;;;11.64;60.17
68807;BME280;55800;54.272;18.558;2022-09-01T00:30:28;101614.94;;;11.62;60.26
68807;BME280;55800;54.272;18.558;2022-09-01T00:32:57;101623.91;;;11.61;60.29
68807;BME280;55800;54.272;18.558;2022-09-01T00:35:27;101623.97;;;11.60;60.25
68807;BME280;55800;54.272;18.558;2022-09-01T00:37:56;101617.75;;;11.58;60.25
68807;BME280;55800;54.272;18.558;2022-09-01T00:40:27;101622.28;;;11.56;60.30
68807;BME280;55800;54.272;18.558;2022-09-01T00:42:57;101620.59;;;11.53;60.31
68807;BME280;55800;54.272;18.558;2022-09-01T00:45:29;101620.59;;;11.52;60.47
68807;BME280;55800;54.272;18.558;2022-09-01T00:47:59;101612.69;;;11.49;60.46
68807;BME280;55800;54.272;18.558;2022-09-01T00:50:28;101626.09;;;11.47;60.51
68807;BME280;55800;54.272;18.558;2022-09-01T00:52:57;101638.66;;;11.45;60.42
68807;BME280;55800;54.272;18.558;2022-09-01T00:55:29;101646.75;;;11.44;60.51
68807;BME280;55800;54.272;18.558;2022-09-01T00:58:00;101636.09;;;11.42;60.59
68807;BME280;55800;54.272;18.558;2022-09-01T01:00:33;101651.13;;;11.46;61.38
68807;BME280;55800;54.272;18.558;2022-09-01T01:03:10;101637.69;;;11.48;61.21
68807;BME280;55800;54.272;18.558;2022-09-01T01:05:43;101639.34;;;11.52;62.24
68807;BME280;55800;54.272;18.558;2022-09-01T01:08:23;101631.25;;;11.55;61.98
68807;BME280;55800;54.272;18.558;2022-09-01T01:10:58;101646.28;;;11.59;62.23
68807;BME280;55800;54.272;18.558;2022-09-01T01:13:28;101644.38;;;11.64;62.47
68807;BME280;55800;54.272;18.558;2022-09-01T01:16:00;101637.91;;;11.71;62.81
68807;BME280;55800;54.272;18.558;2022-09-01T01:18:30;101637.72;;;11.77;62.89
68807;BME280;55800;54.272;18.558;2022-09-01T01:21:03;101639.31;;;11.84;63.25
68807;BME280;55800;54.272;18.558;2022-09-01T01:23:56;101637.31;;;11.91;62.80
68807;BME280;55800;54.272;18.558;2022-09-01T01:26:32;101623.78;;;11.95;63.17
68807;BME280;55800;54.272;18.558;2022-09-01T01:29:01;101627.09;;;12.03;63.22
68807;BME280;55800;54.272;18.558;2022-09-01T01:31:31;101621.59;;;12.08;63.21
68807;BME280;55800;54.272;18.558;2022-09-01T01:34:03;101626.78;;;12.12;63.08
68807;BME280;55800;54.272;18.558;2022-09-01T01:36:37;101618.50;;;12.20;63.35
68807;BME280;55800;54.272;18.558;2022-09-01T01:39:16;101611.19;;;12.25;63.43
68807;BME280;55800;54.272;18.558;2022-09-01T01:41:48;101614.59;;;12.30;63.31
68807;BME280;55800;54.272;18.558;2022-09-01T01:44:21;101611.88;;;12.31;62.98
68807;BME280;55800;54.272;18.558;2022-09-01T01:46:57;101599.22;;;12.35;62.98
68807;BME280;55800;54.272;18.558;2022-09-01T01:49:27;101608.03;;;12.38;62.92
68807;BME280;55800;54.272;18.558;2022-09-01T01:51:58;101607.88;;;12.43;63.16
68807;BME280;55800;54.272;18.558;2022-09-01T01:54:31;101597.97;;;12.45;62.93
68807;BME280;55800;54.272;18.558;2022-09-01T01:57:01;101605.94;;;12.48;62.55
68807;BME280;55800;54.272;18.558;2022-09-01T01:59:32;101607.63;;;12.50;62.91
68807;BME280;55800;54.272;18.558;2022-09-01T02:02:01;101610.19;;;12.53;62.94
68807;BME280;55800;54.272;18.558;2022-09-01T02:04:36;101610.09;;;12.57;62.96
68807;BME280;55800;54.272;18.558;2022-09-01T02:07:11;101601.97;;;12.60;62.96
68807;BME280;55800;54.272;18.558;2022-09-01T02:09:41;101610.84;;;12.62;63.00
68807;BME280;55800;54.272;18.558;2022-09-01T02:12:16;101597.28;;;12.65;62.88
68807;BME280;55800;54.272;18.558;2022-09-01T02:14:46;101603.47;;;12.67;62.90
68807;BME280;55800;54.272;18.558;2022-09-01T02:17:17;101601.63;;;12.69;63.01
68807;BME280;55800;54.272;18.558;2022-09-01T02:19:48;101596.16;;;12.72;63.00
68807;BME280;55800;54.272;18.558;2022-09-01T02:22:17;101586.25;;;12.74;63.05
68807;BME280;55800;54.272;18.558;2022-09-01T02:24:48;101592.44;;;12.76;63.08
68807;BME280;55800;54.272;18.558;2022-09-01T02:27:21;101591.50;;;12.77;62.90
68807;BME280;55800;54.272;18.558;2022-09-01T02:29:53;101587.88;;;12.78;63.02
68807;BME280;55800;54.272;18.558;2022-09-01T02:32:26;101583.34;;;12.80;63.22
68807;BME280;55800;54.272;18.558;2022-09-01T02:34:55;101589.59;;;12.80;63.00
68807;BME280;55800;54.272;18.558;2022-09-01T02:37:28;101590.47;;;12.81;62.94
68807;BME280;55800;54.272;18.558;2022-09-01T02:39:57;101585.97;;;12.81;63.06
68807;BME280;55800;54.272;18.558;2022-09-01T02:42:27;101578.78;;;12.82;62.99
68807;BME280;55800;54.272;18.558;2022-09-01T02:44:57;101582.38;;;12.82;62.98
68807;BME280;55800;54.272;18.558;2022-09-01T02:47:31;101585.94;;;12.83;62.94
68807;BME280;55800;54.272;18.558;2022-09-01T02:50:00;101582.31;;;12.84;62.71
68807;BME280;55800;54.272;18.558;2022-09-01T02:52:30;101583.13;;;12.86;63.19
68807;BME280;55800;54.272;18.558;2022-09-01T02:55:06;101576.84;;;12.87;63.29
68807;BME280;55800;54.272;18.558;2022-09-01T02:57:37;101577.66;;;12.89;63.33
68807;BME280;55800;54.272;18.558;2022-09-01T03:00:08;101574.97;;;12.89;63.28
68807;BME280;55800;54.272;18.558;2022-09-01T03:02:49;101573.16;;;12.89;63.26
68807;BME280;55800;54.272;18.558;2022-09-01T03:05:20;101571.34;;;12.90;63.35
68807;BME280;55800;54.272;18.558;2022-09-01T03:07:54;101585.63;;;12.90;63.38
68807;BME280;55800;54.272;18.558;2022-09-01T03:13:52;101581.16;;;12.91;63.24
68807;BME280;55800;54.272;18.558;2022-09-01T03:16:22;101578.47;;;12.91;63.44
68807;BME280;55800;54.272;18.558;2022-09-01T03:18:51;101581.16;;;12.91;63.31
68807;BME280;55800;54.272;18.558;2022-09-01T03:21:21;101582.88;;;12.92;63.54
68807;BME280;55800;54.272;18.558;2022-09-01T03:23:51;101574.84;;;12.92;63.45
68807;BME280;55800;54.272;18.558;2022-09-01T03:26:21;101579.34;;;12.91;63.35
68807;BME280;55800;54.272;18.558;2022-09-01T03:28:52;101580.22;;;12.92;63.61
68807;BME280;55800;54.272;18.558;2022-09-01T03:31:22;101579.22;;;12.94;63.65
68807;BME280;55800;54.272;18.558;2022-09-01T03:33:59;101581.03;;;12.94;63.68
68807;BME280;55800;54.272;18.558;2022-09-01T03:36:33;101583.72;;;12.94;63.74
68807;BME280;55800;54.272;18.558;2022-09-01T03:39:03;101577.53;;;12.92;63.73
68807;BME280;55800;54.272;18.558;2022-09-01T03:41:32;101579.28;;;12.93;64.09
68807;BME280;55800;54.272;18.558;2022-09-01T03:44:05;101583.63;;;12.97;64.09
68807;BME280;55800;54.272;18.558;2022-09-01T03:46:39;101576.31;;;13.00;64.16
68807;BME280;55800;54.272;18.558;2022-09-01T03:49:09;101575.41;;;13.01;64.03
68807;BME280;55800;54.272;18.558;2022-09-01T03:51:42;101580.75;;;13.01;64.10
68807;BME280;55800;54.272;18.558;2022-09-01T03:54:12;101578.97;;;13.02;63.95
68807;BME280;55800;54.272;18.558;2022-09-01T03:56:41;101572.66;;;13.03;64.17
68807;BME280;55800;54.272;18.558;2022-09-01T03:59:17;101574.41;;;13.04;64.34
68807;BME280;55800;54.272;18.558;2022-09-01T04:01:47;101575.28;;;13.06;64.28
68807;BME280;55800;54.272;18.558;2022-09-01T04:04:17;101572.50;;;13.07;64.29
68807;BME280;55800;54.272;18.558;2022-09-01T04:06:46;101576.03;;;13.09;64.24
68807;BME280;55800;54.272;18.558;2022-09-01T04:09:15;101574.22;;;13.10;64.40
68807;BME280;55800;54.272;18.558;2022-09-01T04:11:45;101578.53;;;13.14;64.34
68807;BME280;55800;54.272;18.558;2022-09-01T04:14:17;101583.78;;;13.17;64.38
68807;BME280;55800;54.272;18.558;2022-09-01T04:16:48;101578.38;;;13.18;64.47
68807;BME280;55800;54.272;18.558;2022-09-01T04:19:36;101572.00;;;13.21;64.53
68807;BME280;55800;54.272;18.558;2022-09-01T04:22:08;101576.44;;;13.22;64.62
68807;BME280;55800;54.272;18.558;2022-09-01T04:24:44;101582.56;;;13.25;64.39
68807;BME280;55800;54.272;18.558;2022-09-01T04:27:15;101585.22;;;13.27;64.79
68807;BME280;55800;54.272;18.558;2022-09-01T04:29:49;101577.97;;;13.29;64.48
68807;BME280;55800;54.272;18.558;2022-09-01T04:32:26;101584.16;;;13.31;64.73
68807;BME280;55800;54.272;18.558;2022-09-01T04:34:58;101585.84;;;13.34;64.69
68807;BME280;55800;54.272;18.558;2022-09-01T04:37:28;101581.22;;;13.37;64.65
68807;BME280;55800;54.272;18.558;2022-09-01T04:40:01;101583.84;;;13.39;64.56
68807;BME280;55800;54.272;18.558;2022-09-01T04:42:32;101578.44;;;13.40;64.65
68807;BME280;55800;54.272;18.558;2022-09-01T04:45:04;101584.63;;;13.42;64.64
68807;BME280;55800;54.272;18.558;2022-09-01T04:47:42;101581.88;;;13.44;64.82
68807;BME280;55800;54.272;18.558;2022-09-01T04:50:17;101580.88;;;13.46;64.76
68807;BME280;55800;54.272;18.558;2022-09-01T04:53:05;101576.34;;;13.48;64.74
68807;BME280;55800;54.272;18.558;2022-09-01T04:55:42;101580.66;;;13.52;65.05
68807;BME280;55800;54.272;18.558;2022-09-01T04:58:17;101582.34;;;13.55;64.92
68807;BME280;55800;54.272;18.558;2022-09-01T05:00:49;101583.97;;;13.59;64.91
68807;BME280;55800;54.272;18.558;2022-09-01T05:03:21;101580.31;;;13.61;65.09
68807;BME280;55800;54.272;18.558;2022-09-01T05:05:56;101581.94;;;13.65;65.14
68807;BME280;55800;54.272;18.558;2022-09-01T05:08:32;101574.69;;;13.67;65.18
68807;BME280;55800;54.272;18.558;2022-09-01T05:11:14;101583.56;;;13.69;65.19
68807;BME280;55800;54.272;18.558;2022-09-01T05:13:48;101578.84;;;13.74;65.57
68807;BME280;55800;54.272;18.558;2022-09-01T05:16:20;101582.25;;;13.79;65.37
68807;BME280;55800;54.272;18.558;2022-09-01T05:18:55;101592.06;;;13.80;65.19
68807;BME280;55800;54.272;18.558;2022-09-01T05:21:31;101586.56;;;13.83;65.38
68807;BME280;55800;54.272;18.558;2022-09-01T05:24:01;101591.81;;;13.86;65.43
68807;BME280;55800;54.272;18.558;2022-09-01T05:26:32;101593.19;;;13.96;65.86
68807;BME280;55800;54.272;18.558;2022-09-01T05:29:04;101595.56;;;14.04;65.67
68807;BME280;55800;54.272;18.558;2022-09-01T05:31:40;101589.09;;;14.09;65.42
68807;BME280;55800;54.272;18.558;2022-09-01T05:34:10;101595.94;;;14.17;65.57
68807;BME280;55800;54.272;18.558;2022-09-01T05:36:43;101599.31;;;14.22;65.43
68807;BME280;55800;54.272;18.558;2022-09-01T05:39:15;101599.06;;;14.29;65.61
68807;BME280;55800;54.272;18.558;2022-09-01T05:41:44;101596.13;;;14.35;65.45
68807;BME280;55800;54.272;18.558;2022-09-01T05:44:17;101593.97;;;14.43;65.38
68807;BME280;55800;54.272;18.558;2022-09-01T05:46:51;101600.78;;;14.52;65.44
68807;BME280;55800;54.272;18.558;2022-09-01T05:49:23;101594.19;;;14.59;65.41
68807;BME280;55800;54.272;18.558;2022-09-01T05:51:55;101593.94;;;14.65;65.22
68807;BME280;55800;54.272;18.558;2022-09-01T05:54:28;101596.44;;;14.69;65.18
68807;BME280;55800;54.272;18.558;2022-09-01T05:56:57;101598.84;;;14.75;65.36
68807;BME280;55800;54.272;18.558;2022-09-01T05:59:48;101600.47;;;14.79;65.29
68807;BME280;55800;54.272;18.558;2022-09-01T06:02:25;101601.97;;;14.87;65.25
68807;BME280;55800;54.272;18.558;2022-09-01T06:04:57;101594.47;;;14.93;65.23
68807;BME280;55800;54.272;18.558;2022-09-01T06:07:31;101590.63;;;14.99;65.41
68807;BME280;55800;54.272;18.558;2022-09-01T06:10:03;101592.16;;;15.04;65.20
68807;BME280;55800;54.272;18.558;2022-09-01T06:12:34;101582.06;;;15.09;65.05
68807;BME280;55800;54.272;18.558;2022-09-01T06:15:04;101581.88;;;15.14;64.98
68807;BME280;55800;54.272;18.558;2022-09-01T06:17:47;101586.09;;;15.19;65.00
68807;BME280;55800;54.272;18.558;2022-09-01T06:20:17;101583.13;;;15.25;64.97
68807;BME280;55800;54.272;18.558;2022-09-01T06:22:47;101589.03;;;15.33;64.88
68807;BME280;55800;54.272;18.558;2022-09-01T06:25:16;101591.28;;;15.42;64.30
68807;BME280;55800;54.272;18.558;2022-09-01T06:27:47;101594.63;;;15.49;64.68
68807;BME280;55800;54.272;18.558;2022-09-01T06:30:20;101592.44;;;15.57;64.77
68807;BME280;55800;54.272;18.558;2022-09-01T06:32:59;101584.81;;;15.67;64.54
68807;BME280;55800;54.272;18.558;2022-09-01T06:35:30;101589.69;;;15.77;64.48
68807;BME280;55800;54.272;18.558;2022-09-01T06:38:01;101594.66;;;15.86;64.43
68807;BME280;55800;54.272;18.558;2022-09-01T06:40:41;101594.91;;;15.99;64.48
68807;BME280;55800;54.272;18.558;2022-09-01T06:43:12;101586.31;;;16.09;64.52
68807;BME280;55800;54.272;18.558;2022-09-01T06:45:50;101592.97;;;16.19;64.74
68807;BME280;55800;54.272;18.558;2022-09-01T06:48:28;101598.72;;;16.30;64.31
68807;BME280;55800;54.272;18.558;2022-09-01T06:51:10;101599.13;;;16.40;64.31
68807;BME280;55800;54.272;18.558;2022-09-01T06:53:46;101595.09;;;16.49;64.27
68807;BME280;55800;54.272;18.558;2022-09-01T06:56:18;101599.19;;;16.57;64.10
68807;BME280;55800;54.272;18.558;2022-09-01T06:58:50;101597.94;;;16.64;64.28
68807;BME280;55800;54.272;18.558;2022-09-01T07:01:21;101598.47;;;16.71;63.93
68807;BME280;55800;54.272;18.558;2022-09-01T07:03:54;101601.75;;;16.77;64.18
68807;BME280;55800;54.272;18.558;2022-09-01T07:06:52;101601.44;;;16.83;63.86
68807;BME280;55800;54.272;18.558;2022-09-01T07:10:11;101601.88;;;16.91;63.77
68807;BME280;55800;54.272;18.558;2022-09-01T07:12:56;101604.41;;;16.94;63.30
68807;BME280;55800;54.272;18.558;2022-09-01T07:15:38;101598.84;;;16.97;63.29
68807;BME280;55800;54.272;18.558;2022-09-01T07:18:32;101604.16;;;16.99;63.08
68807;BME280;55800;54.272;18.558;2022-09-01T07:21:06;101598.72;;;17.00;62.58
68807;BME280;55800;54.272;18.558;2022-09-01T07:23:55;101606.81;;;17.00;62.72
68807;BME280;55800;54.272;18.558;2022-09-01T07:26:41;101604.13;;;17.00;62.52
68807;BME280;55800;54.272;18.558;2022-09-01T07:29:15;101611.34;;;17.00;62.27
68807;BME280;55800;54.272;18.558;2022-09-01T07:31:50;101618.56;;;16.99;62.46
68807;BME280;55800;54.272;18.558;2022-09-01T07:34:42;101609.66;;;16.97;62.49
68807;BME280;55800;54.272;18.558;2022-09-01T07:37:18;101616.09;;;16.95;62.17
68807;BME280;55800;54.272;18.558;2022-09-01T07:40:12;101617.13;;;16.92;61.75
68807;BME280;55800;54.272;18.558;2022-09-01T07:43:30;101611.72;;;16.92;61.86
68807;BME280;55800;54.272;18.558;2022-09-01T07:46:19;101618.97;;;16.92;61.63
68807;BME280;55800;54.272;18.558;2022-09-01T07:49:10;101622.38;;;16.95;61.97
68807;BME280;55800;54.272;18.558;2022-09-01T07:51:59;101622.25;;;16.98;62.19
68807;BME280;55800;54.272;18.558;2022-09-01T07:54:32;101625.41;;;17.06;61.22
68807;BME280;55800;54.272;18.558;2022-09-01T07:57:04;101631.41;;;17.11;60.77
68807;BME280;55800;54.272;18.558;2022-09-01T07:59:35;101626.81;;;17.13;61.12
68807;BME280;55800;54.272;18.558;2022-09-01T08:02:12;101629.22;;;17.20;61.36
68807;BME280;55800;54.272;18.558;2022-09-01T08:04:45;101635.06;;;17.28;60.89
68807;BME280;55800;54.272;18.558;2022-09-01T08:07:15;101632.97;;;17.33;61.13
68807;BME280;55800;54.272;18.558;2022-09-01T08:09:46;101639.81;;;17.40;61.54
68807;BME280;55800;54.272;18.558;2022-09-01T08:12:16;101640.44;;;17.45;61.22
68807;BME280;55800;54.272;18.558;2022-09-01T08:14:49;101641.09;;;17.50;61.03
68807;BME280;55800;54.272;18.558;2022-09-01T08:17:41;101640.16;;;17.51;60.64
68807;BME280;55800;54.272;18.558;2022-09-01T08:20:18;101636.47;;;17.52;60.74
68807;BME280;55800;54.272;18.558;2022-09-01T08:23:12;101640.94;;;17.53;60.79
68807;BME280;55800;54.272;18.558;2022-09-01T08:25:43;101645.31;;;17.55;60.75
68807;BME280;55800;54.272;18.558;2022-09-01T08:28:13;101637.09;;;17.57;60.48
68807;BME280;55800;54.272;18.558;2022-09-01T08:30:53;101639.56;;;17.61;60.92
68807;BME280;55800;54.272;18.558;2022-09-01T08:33:25;101640.19;;;17.66;60.66
68807;BME280;55800;54.272;18.558;2022-09-01T08:35:54;101646.13;;;17.73;60.75
68807;BME280;55800;54.272;18.558;2022-09-01T08:38:25;101641.34;;;17.78;60.80
68807;BME280;55800;54.272;18.558;2022-09-01T08:40:58;101643.63;;;17.85;61.10
68807;BME280;55800;54.272;18.558;2022-09-01T08:43:43;101642.31;;;17.92;60.77
68807;BME280;55800;54.272;18.558;2022-09-01T08:46:22;101631.06;;;18.00;60.76
68807;BME280;55800;54.272;18.558;2022-09-01T08:48:54;101628.78;;;18.08;60.67
68807;BME280;55800;54.272;18.558;2022-09-01T08:52:10;101635.41;;;18.18;60.56
68807;BME280;55800;54.272;18.558;2022-09-01T08:54:44;101635.94;;;18.25;60.57
68807;BME280;55800;54.272;18.558;2022-09-01T08:57:19;101632.78;;;18.32;60.32
68807;BME280;55800;54.272;18.558;2022-09-01T09:00:18;101637.88;;;18.38;60.58
68807;BME280;55800;54.272;18.558;2022-09-01T09:02:59;101625.72;;;18.45;60.63
68807;BME280;55800;54.272;18.558;2022-09-01T09:05:47;101630.72;;;18.53;60.45
68807;BME280;55800;54.272;18.558;2022-09-01T09:08:29;101640.13;;;18.61;60.67
68807;BME280;55800;54.272;18.558;2022-09-01T09:11:04;101636.84;;;18.70;60.32
68807;BME280;55800;54.272;18.558;2022-09-01T09:13:45;101643.56;;;18.79;60.14
68807;BME280;55800;54.272;18.558;2022-09-01T09:16:24;101647.78;;;18.85;59.96
68807;BME280;55800;54.272;18.558;2022-09-01T09:18:59;101637.59;;;18.88;59.66
68807;BME280;55800;54.272;18.558;2022-09-01T09:21:34;101643.72;;;18.92;59.94
68807;BME280;55800;54.272;18.558;2022-09-01T09:24:09;101636.19;;;18.97;59.94
68807;BME280;55800;54.272;18.558;2022-09-01T09:26:48;101630.47;;;19.01;59.58
68807;BME280;55800;54.272;18.558;2022-09-01T09:29:19;101630.09;;;19.07;59.57
68807;BME280;55800;54.272;18.558;2022-09-01T09:32:02;101622.47;;;19.14;59.51
68807;BME280;55800;54.272;18.558;2022-09-01T09:34:33;101626.63;;;19.19;59.22
68807;BME280;55800;54.272;18.558;2022-09-01T09:37:21;101630.63;;;19.28;59.35
68807;BME280;55800;54.272;18.558;2022-09-01T09:40:11;101635.75;;;19.32;59.32
68807;BME280;55800;54.272;18.558;2022-09-01T09:43:03;101634.47;;;19.39;59.79
68807;BME280;55800;54.272;18.558;2022-09-01T09:45:38;101652.94;;;19.47;59.74
68807;BME280;55800;54.272;18.558;2022-09-01T09:48:25;101648.91;;;19.54;59.84
68807;BME280;55800;54.272;18.558;2022-09-01T09:50:57;101650.28;;;19.61;59.98
68807;BME280;55800;54.272;18.558;2022-09-01T09:53:43;101663.53;;;19.66;60.23
68807;BME280;55800;54.272;18.558;2022-09-01T09:56:17;101665.09;;;19.70;60.20
68807;BME280;55800;54.272;18.558;2022-09-01T09:58:48;101663.22;;;19.70;60.03
68807;BME280;55800;54.272;18.558;2022-09-01T10:01:30;101657.91;;;19.69;59.71
68807;BME280;55800;54.272;18.558;2022-09-01T10:04:00;101656.38;;;19.65;60.11
68807;BME280;55800;54.272;18.558;2022-09-01T10:06:33;101656.66;;;19.60;60.09
68807;BME280;55800;54.272;18.558;2022-09-01T10:09:06;101650.66;;;19.55;59.92
68807;BME280;55800;54.272;18.558;2022-09-01T10:11:39;101657.13;;;19.53;59.99
68807;BME280;55800;54.272;18.558;2022-09-01T10:14:12;101658.19;;;19.50;59.75
68807;BME280;55800;54.272;18.558;2022-09-01T10:17:08;101663.81;;;19.47;59.75
68807;BME280;55800;54.272;18.558;2022-09-01T10:19:49;101676.59;;;19.45;59.59
68807;BME280;55800;54.272;18.558;2022-09-01T10:22:20;101685.88;;;19.41;59.39
68807;BME280;55800;54.272;18.558;2022-09-01T10:24:49;101686.94;;;19.38;59.48
68807;BME280;55800;54.272;18.558;2022-09-01T10:27:19;101677.19;;;19.36;59.54
68807;BME280;55800;54.272;18.558;2022-09-01T10:29:53;101679.13;;;19.34;59.66
68807;BME280;55800;54.272;18.558;2022-09-01T10:32:45;101684.44;;;19.35;59.78
68807;BME280;55800;54.272;18.558;2022-09-01T10:35:25;101688.03;;;19.36;59.99
68807;BME280;55800;54.272;18.558;2022-09-01T10:37:57;101680.66;;;19.38;59.93
68807;BME280;55800;54.272;18.558;2022-09-01T10:40:36;101671.56;;;19.39;59.81
68807;BME280;55800;54.272;18.558;2022-09-01T10:43:33;101676.09;;;19.38;60.05
68807;BME280;55800;54.272;18.558;2022-09-01T10:46:17;101686.09;;;19.38;60.05
68807;BME280;55800;54.272;18.558;2022-09-01T10:55:47;101684.16;;;19.40;60.17
68807;BME280;55800;54.272;18.558;2022-09-01T10:59:04;101675.13;;;19.39;60.27
68807;BME280;55800;54.272;18.558;2022-09-01T11:02:09;101686.09;;;19.38;59.99
68807;BME280;55800;54.272;18.558;2022-09-01T11:05:16;101678.91;;;19.37;59.67
68807;BME280;55800;54.272;18.558;2022-09-01T11:07:45;101678.19;;;19.33;59.75
68807;BME280;55800;54.272;18.558;2022-09-01T11:10:47;101681.88;;;19.32;59.58
68807;BME280;55800;54.272;18.558;2022-09-01T11:13:38;101676.66;;;19.29;59.69
68807;BME280;55800;54.272;18.558;2022-09-01T11:16:33;101679.53;;;19.26;59.59
68807;BME280;55800;54.272;18.558;2022-09-01T11:19:34;101668.59;;;19.28;59.34
68807;BME280;55800;54.272;18.558;2022-09-01T11:22:18;101664.16;;;19.27;59.55
68807;BME280;55800;54.272;18.558;2022-09-01T11:31:30;101654.94;;;19.29;59.75
68807;BME280;55800;54.272;18.558;2022-09-01T11:34:10;101659.28;;;19.32;59.64
68807;BME280;55800;54.272;18.558;2022-09-01T11:36:56;101657.41;;;19.34;59.16
68807;BME280;55800;54.272;18.558;2022-09-01T11:39:41;101657.22;;;19.37;59.42
68807;BME280;55800;54.272;18.558;2022-09-01T11:42:15;101657.09;;;19.38;59.36
68807;BME280;55800;54.272;18.558;2022-09-01T11:44:50;101653.34;;;19.41;59.04
68807;BME280;55800;54.272;18.558;2022-09-01T11:47:24;101669.44;;;19.44;59.20
68807;BME280;55800;54.272;18.558;2022-09-01T11:49:56;101666.63;;;19.45;59.02
68807;BME280;55800;54.272;18.558;2022-09-01T11:52:28;101668.38;;;19.47;58.96
68807;BME280;55800;54.272;18.558;2022-09-01T11:54:59;101669.16;;;19.49;58.42
68807;BME280;55800;54.272;18.558;2022-09-01T11:57:30;101668.28;;;19.48;58.44
68807;BME280;55800;54.272;18.558;2022-09-01T12:00:03;101659.38;;;19.46;58.21
68807;BME280;55800;54.272;18.558;2022-09-01T12:02:45;101675.63;;;19.46;58.47
68807;BME280;55800;54.272;18.558;2022-09-01T12:05:30;101664.69;;;19.48;58.55
68807;BME280;55800;54.272;18.558;2022-09-01T12:08:02;101663.63;;;19.50;58.38
68807;BME280;55800;54.272;18.558;2022-09-01T12:10:35;101665.19;;;19.54;58.06
68807;BME280;55800;54.272;18.558;2022-09-01T12:13:08;101659.34;;;19.60;58.30
68807;BME280;55800;54.272;18.558;2022-09-01T12:15:39;101660.72;;;19.67;58.36
68807;BME280;55800;54.272;18.558;2022-09-01T12:18:33;101668.28;;;19.76;58.46
68807;BME280;55800;54.272;18.558;2022-09-01T12:21:06;101663.25;;;19.84;58.50
68807;BME280;55800;54.272;18.558;2022-09-01T12:23:37;101668.28;;;19.90;58.29
68807;BME280;55800;54.272;18.558;2022-09-01T12:26:12;101671.59;;;19.95;58.36
68807;BME280;55800;54.272;18.558;2022-09-01T12:28:42;101666.81;;;19.99;58.44
68807;BME280;55800;54.272;18.558;2022-09-01T12:31:14;101668.47;;;20.01;58.38
68807;BME280;55800;54.272;18.558;2022-09-01T12:33:46;101665.53;;;20.04;58.69
68807;BME280;55800;54.272;18.558;2022-09-01T12:36:22;101663.41;;;20.09;58.64
68807;BME280;55800;54.272;18.558;2022-09-01T12:38:53;101664.78;;;20.16;58.66
68807;BME280;55800;54.272;18.558;2022-09-01T12:41:32;101663.31;;;20.25;58.85
68807;BME280;55800;54.272;18.558;2022-09-01T12:44:27;101660.88;;;20.35;58.62
68807;BME280;55800;54.272;18.558;2022-09-01T12:46:59;101660.38;;;20.42;58.33
68807;BME280;55800;54.272;18.558;2022-09-01T12:49:39;101666.16;;;20.50;58.58
68807;BME280;55800;54.272;18.558;2022-09-01T12:52:22;101668.47;;;20.56;58.65
68807;BME280;55800;54.272;18.558;2022-09-01T12:55:09;101667.41;;;20.59;58.51
68807;BME280;55800;54.272;18.558;2022-09-01T12:58:02;101664.56;;;20.60;58.57
68807;BME280;55800;54.272;18.558;2022-09-01T13:00:34;101670.00;;;20.60;58.20
68807;BME280;55800;54.272;18.558;2022-09-01T13:03:11;101666.31;;;20.61;58.40
68807;BME280;55800;54.272;18.558;2022-09-01T13:05:43;101667.19;;;20.62;58.36
68807;BME280;55800;54.272;18.558;2022-09-01T13:08:16;101667.00;;;20.65;58.15
68807;BME280;55800;54.272;18.558;2022-09-01T13:10:48;101664.03;;;20.68;58.18
68807;BME280;55800;54.272;18.558;2022-09-01T13:13:19;101671.13;;;20.70;57.82
68807;BME280;55800;54.272;18.558;2022-09-01T13:15:52;101666.38;;;20.74;58.07
68807;BME280;55800;54.272;18.558;2022-09-01T13:18:23;101662.47;;;20.78;57.84
68807;BME280;55800;54.272;18.558;2022-09-01T13:20:55;101664.19;;;20.79;57.74
68807;BME280;55800;54.272;18.558;2022-09-01T13:23:25;101660.28;;;20.83;57.17
68807;BME280;55800;54.272;18.558;2022-09-01T13:25:55;101662.06;;;20.84;56.95
68807;BME280;55800;54.272;18.558;2022-09-01T13:28:26;101663.78;;;20.85;56.96
68807;BME280;55800;54.272;18.558;2022-09-01T13:30:57;101669.03;;;20.88;56.86
68807;BME280;55800;54.272;18.558;2022-09-01T13:33:47;101666.88;;;20.93;56.82
68807;BME280;55800;54.272;18.558;2022-09-01T13:36:38;101659.25;;;20.98;56.00
68807;BME280;55800;54.272;18.558;2022-09-01T13:39:14;101660.00;;;21.14;57.17
68807;BME280;55800;54.272;18.558;2022-09-01T13:41:45;101664.13;;;21.45;57.70